Terminal Aerodrome Forecast
Issued by NWS

Home | Current Version | Previous Version | Graphics & Text | Print | Product List | Glossary On
Versions: 1 2 3 4 5 6 7 8 9 10 11 12 13 14 15 16 17
000
FTUS43 KGRB 231120
TAFMTW
TAF
KMTW 231120Z 2312/2412 22005KT 5SM BR OVC003
      TEMPO 2312/2314 P6SM NSW SCT003
     FM231500 31007KT P6SM SCT040 BKN100
     FM232000 35009KT P6SM VCTS BKN040CB
     FM240000 04006KT P6SM VCSH BKN035
     FM240300 01006KT P6SM SCT035
     FM240600 35007KT 5SM BR SCT004 OVC015
      TEMPO 2408/2412 2SM BR BKN004=

USA.gov is the U.S. government's official web portal to all federal, state and local government web resources and services.